Time;durP1;ratioP1;P1;durP2;ratioP2;P2;SDS_P1;SDS_P2;PMS_P1;PMS_P2;Temp;Humidity;BMP_temperature;BMP_pressure;BME280_temperature;BME280_humidity;BME280_pressure;Samples;Min_cycle;Max_cycle;Signal;HPM_P1;HPM_P2
2023/05/12 00:00:38;;;;;;;;;2.00;2.00;;;;;15.36;54.85;100937.88;5074333;27;45644;-78
2023/05/12 00:03:04;;;;;;;;;2.00;2.00;;;;;15.37;55.01;100934.25;5074456;27;46127;-78
2023/05/12 00:05:30;;;;;;;;;2.75;2.50;;;;;15.41;54.56;100938.31;5074366;27;45757;-77
2023/05/12 00:07:55;;;;;;;;;3.25;3.00;;;;;15.41;54.14;100938.31;5089986;27;45529;-77
2023/05/12 00:10:20;;;;;;;;;3.00;2.25;;;;;15.39;54.13;100941.06;5074146;27;45603;-78
2023/05/12 00:12:46;;;;;;;;;4.50;4.00;;;;;15.36;54.27;100936.06;5074147;27;45722;-78
2023/05/12 00:15:12;;;;;;;;;4.75;3.00;;;;;15.35;53.93;100937.03;5074256;27;45567;-77
2023/05/12 00:17:37;;;;;;;;;3.00;3.00;;;;;15.34;54.06;100937.16;5074254;27;45661;-78
2023/05/12 00:23:24;;;;;;;;;3.00;3.00;;;;;15.32;53.85;100926.75;5073766;28;45777;-76
2023/05/12 00:25:50;;;;;;;;;3.75;3.00;;;;;15.31;53.90;100925.06;5074314;27;45628;-77
2023/05/12 00:28:16;;;;;;;;;2.25;2.00;;;;;15.32;53.91;100939.09;5074180;27;45516;-77
2023/05/12 00:30:41;;;;;;;;;2.00;2.00;;;;;15.29;54.09;100932.28;5073751;27;45615;-77
2023/05/12 00:33:07;;;;;;;;;1.25;1.00;;;;;15.29;54.30;100937.53;5073905;27;46005;-79
2023/05/12 00:38:55;;;;;;;;;2.25;1.00;;;;;15.28;53.88;100932.38;5073821;28;45534;-78
2023/05/12 00:41:20;;;;;;;;;3.50;2.25;;;;;15.29;53.97;100934.91;5073848;27;46870;-77
2023/05/12 00:43:46;;;;;;;;;0.25;0.00;;;;;15.32;53.93;100941.75;5073999;28;45630;-78
2023/05/12 00:46:11;;;;;;;;;3.00;1.75;;;;;15.31;53.70;100932.97;5074175;27;45659;-73
2023/05/12 00:48:37;;;;;;;;;1.00;1.00;;;;;15.32;54.01;100947.03;5074165;27;45500;-78
2023/05/12 00:51:03;;;;;;;;;1.00;1.00;;;;;15.24;53.73;100944.19;5073856;27;45698;-78
2023/05/12 00:53:30;;;;;;;;;1.50;1.50;;;;;15.18;53.56;100937.63;5073532;27;46594;-78
2023/05/12 00:55:56;;;;;;;;;1.50;1.50;;;;;15.08;53.45;100927.03;5073836;27;45691;-79
2023/05/12 00:58:22;;;;;;;;;3.00;2.00;;;;;15.07;53.76;100943.81;5089116;27;45739;-76
2023/05/12 01:00:48;;;;;;;;;1.50;1.50;;;;;15.01;53.83;100923.22;5073612;27;45910;-78
2023/05/12 01:03:14;;;;;;;;;2.00;1.00;;;;;15.01;53.72;100930.28;5073642;27;46408;-78
2023/05/12 01:09:01;;;;;;;;;1.00;1.00;;;;;14.96;53.57;100935.97;5077077;28;45687;-77
2023/05/12 01:11:27;;;;;;;;;3.00;2.00;;;;;14.95;53.99;100934.28;5092321;27;47596;-78
2023/05/12 01:13:52;;;;;;;;;1.75;1.75;;;;;14.87;54.07;100928.81;5077085;27;45760;-75
2023/05/12 01:16:25;;;;;;;;;0.75;0.75;;;;;14.89;53.74;100934.81;5077001;27;45667;-76
2023/05/12 01:18:54;;;;;;;;;2.50;2.00;;;;;14.88;54.05;100935.78;5076821;28;45787;-78
2023/05/12 01:21:20;;;;;;;;;1.00;1.00;;;;;14.87;53.74;100931.47;5076765;27;46558;-77
2023/05/12 01:23:54;;;;;;;;;1.00;1.00;;;;;14.84;53.89;100930.91;5077008;27;45888;-77
2023/05/12 01:26:21;;;;;;;;;1.00;1.00;;;;;14.83;54.12;100934.50;5076869;27;45495;-77
2023/05/12 01:28:47;;;;;;;;;1.75;1.75;;;;;14.85;54.04;100930.75;5077069;27;45882;-78
2023/05/12 01:31:13;;;;;;;;;2.00;2.00;;;;;14.83;54.10;100929.22;5076642;27;45751;-77
2023/05/12 01:33:40;;;;;;;;;2.25;1.00;;;;;14.83;54.12;100932.69;5076718;27;46311;-77
2023/05/12 01:39:27;;;;;;;;;2.00;2.00;;;;;14.77;54.16;100930.56;5076465;28;45553;-76
2023/05/12 01:41:53;;;;;;;;;1.75;0.50;;;;;14.70;54.21;100932.03;5076367;27;46360;-76
2023/05/12 01:44:19;;;;;;;;;2.00;1.00;;;;;14.72;54.45;100929.28;5076557;27;45986;-77
2023/05/12 01:46:44;;;;;;;;;1.25;1.25;;;;;14.72;54.25;100931.91;5076471;28;45543;-78
2023/05/12 01:49:10;;;;;;;;;4.75;2.75;;;;;14.63;54.36;100933.50;5076629;27;45707;-78
2023/05/12 01:51:35;;;;;;;;;1.75;1.00;;;;;14.60;54.70;100926.69;5076247;27;45691;-77
2023/05/12 01:54:01;;;;;;;;;2.00;2.00;;;;;14.58;55.24;100923.34;5076118;27;46046;-78
2023/05/12 01:56:27;;;;;;;;;2.00;1.00;;;;;14.62;54.83;100931.84;5076420;27;45655;-76
2023/05/12 01:58:53;;;;;;;;;1.25;1.25;;;;;14.59;55.09;100917.09;5076341;27;45651;-75
2023/05/12 02:01:18;;;;;;;;;2.25;1.00;;;;;14.62;54.86;100924.78;5076169;27;45811;-78
2023/05/12 02:03:43;;;;;;;;;2.75;2.25;;;;;14.63;55.18;100926.41;5076224;27;45679;-76
2023/05/12 02:09:30;;;;;;;;;1.00;1.00;;;;;14.60;55.03;100926.69;5076064;28;45751;-78
2023/05/12 02:11:56;;;;;;;;;2.50;1.25;;;;;14.58;55.27;100935.69;5075885;27;46437;-75
2023/05/12 02:14:21;;;;;;;;;2.00;2.00;;;;;14.54;55.50;100929.81;5076406;28;45579;-75
2023/05/12 02:16:51;;;;;;;;;2.00;2.00;;;;;14.46;55.47;100926.16;5075865;27;45602;-77
2023/05/12 02:19:16;;;;;;;;;1.00;1.00;;;;;14.44;55.62;100928.06;5075628;27;45666;-78
2023/05/12 02:25:04;;;;;;;;;3.75;2.00;;;;;14.32;56.05;100932.50;5075731;28;45752;-77
2023/05/12 02:27:31;;;;;;;;;3.00;3.00;;;;;14.27;56.72;100925.00;5075888;27;45622;-76
2023/05/12 02:29:56;;;;;;;;;3.00;1.75;;;;;14.29;56.76;100930.97;5075919;27;45814;-78
2023/05/12 02:32:22;;;;;;;;;2.00;2.00;;;;;14.29;56.93;100927.50;5075881;27;45620;-79
2023/05/12 02:34:47;;;;;;;;;4.25;1.75;;;;;14.23;56.75;100926.22;5075716;28;46092;-78
2023/05/12 02:37:12;;;;;;;;;4.00;2.50;;;;;14.22;57.18;100921.06;5075584;27;45462;-79
2023/05/12 02:39:38;;;;;;;;;2.00;2.00;;;;;14.21;56.98;100922.00;5075771;27;45780;-76
2023/05/12 02:42:04;;;;;;;;;4.00;3.00;;;;;14.19;57.25;100923.94;5075514;27;46339;-77
2023/05/12 02:44:29;;;;;;;;;2.50;1.50;;;;;14.13;57.22;100925.28;5075646;28;45611;-77
2023/05/12 02:46:56;;;;;;;;;2.00;2.00;;;;;14.10;57.12;100928.16;5075660;27;45552;-73
2023/05/12 02:49:22;;;;;;;;;3.00;2.00;;;;;14.05;57.40;100930.31;5074152;28;45769;-74
2023/05/12 02:55:22;;;;;;;;;2.50;2.00;;;;;14.02;57.43;100927.09;5065999;28;46418;-77
2023/05/12 02:57:48;;;;;;;;;1.75;1.75;;;;;14.00;57.63;100929.00;5075475;27;45623;-76
2023/05/12 03:00:13;;;;;;;;;1.25;1.00;;;;;13.95;57.84;100926.75;5075415;27;45629;-75
2023/05/12 03:02:39;;;;;;;;;3.00;2.25;;;;;13.94;57.91;100927.69;5075248;28;46505;-75
2023/05/12 03:05:05;;;;;;;;;2.00;1.00;;;;;13.99;58.00;100929.97;5075434;27;45943;-78
2023/05/12 03:07:31;;;;;;;;;1.50;1.50;;;;;13.95;57.85;100929.38;5075201;28;45670;-77
2023/05/12 03:09:57;;;;;;;;;3.00;2.25;;;;;13.98;57.98;100931.75;5075417;27;45618;-77
2023/05/12 03:12:22;;;;;;;;;2.50;2.00;;;;;13.97;58.08;100922.22;5075038;27;45651;-75
2023/05/12 03:14:47;;;;;;;;;2.25;2.00;;;;;13.97;58.11;100931.91;5075112;27;46210;-78
2023/05/12 03:17:13;;;;;;;;;2.25;2.00;;;;;13.88;57.94;100917.66;5075107;27;45623;-78
2023/05/12 03:19:38;;;;;;;;;3.00;2.00;;;;;13.90;58.10;100920.19;5075154;27;45923;-78
2023/05/12 03:25:25;;;;;;;;;2.00;2.00;;;;;13.87;58.18;100923.91;5074820;28;45618;-75
2023/05/12 03:27:51;;;;;;;;;3.25;2.50;;;;;13.87;58.62;100927.34;5074871;27;45743;-77
2023/05/12 03:30:16;;;;;;;;;2.00;2.00;;;;;13.87;58.26;100929.16;5074880;27;45554;-76
2023/05/12 03:32:43;;;;;;;;;2.00;2.00;;;;;13.83;58.34;100918.03;5074743;27;45997;-76
2023/05/12 03:35:08;;;;;;;;;2.25;2.25;;;;;13.86;58.79;100924.84;5074664;27;46194;-77
2023/05/12 03:37:34;;;;;;;;;1.00;1.00;;;;;13.85;58.44;100920.53;5074830;28;45525;-78
2023/05/12 03:39:59;;;;;;;;;3.00;2.00;;;;;13.83;58.71;100930.34;5090208;27;45757;-77
2023/05/12 03:42:24;;;;;;;;;2.75;2.75;;;;;13.75;58.96;100922.25;5074573;28;45487;-77
2023/05/12 03:44:50;;;;;;;;;1.50;1.50;;;;;13.72;58.71;100917.19;5074612;27;45537;-79
2023/05/12 03:47:16;;;;;;;;;2.25;2.25;;;;;13.70;58.86;100916.50;5074717;27;45665;-77
2023/05/12 03:49:41;;;;;;;;;2.75;2.00;;;;;13.63;58.91;100924.03;5074665;27;45695;-77
2023/05/12 03:55:28;;;;;;;;;3.25;3.00;;;;;13.49;59.25;100918.19;5070959;28;45622;-77
2023/05/12 03:57:54;;;;;;;;;3.75;3.00;;;;;13.53;59.12;100917.81;5074464;27;45691;-76
2023/05/12 04:00:20;;;;;;;;;4.00;2.50;;;;;13.54;59.36;100927.41;5074558;28;45671;-76
2023/05/12 04:02:45;;;;;;;;;3.50;3.00;;;;;13.58;59.37;100915.66;5074331;27;45588;-78
2023/05/12 04:05:11;;;;;;;;;2.00;2.00;;;;;13.54;59.34;100916.88;5074266;27;45693;-77
2023/05/12 04:10:59;;;;;;;;;2.00;1.00;;;;;13.44;59.55;100929.91;5074016;28;45578;-76
2023/05/12 04:13:26;;;;;;;;;2.75;1.00;;;;;13.33;59.50;100926.44;5074229;27;45501;-76
2023/05/12 04:15:54;;;;;;;;;2.50;2.00;;;;;13.27;59.48;100932.19;5074146;27;46119;-74
2023/05/12 04:18:20;;;;;;;;;3.00;3.00;;;;;13.16;59.41;100933.00;5073920;28;45625;-76
2023/05/12 04:20:45;;;;;;;;;3.25;2.25;;;;;13.06;59.84;100932.00;5074092;27;45728;-76
2023/05/12 04:23:10;;;;;;;;;2.00;1.25;;;;;12.95;59.69;100922.28;5074114;27;45628;-74
2023/05/12 04:25:39;;;;;;;;;2.75;2.00;;;;;12.93;59.90;100918.94;5074197;27;46544;-75
2023/05/12 04:28:05;;;;;;;;;4.00;2.00;;;;;12.99;59.67;100930.78;5074367;27;45768;-74
2023/05/12 04:30:31;;;;;;;;;5.00;2.00;;;;;12.91;59.63;100927.88;5074258;27;45717;-77
2023/05/12 04:32:56;;;;;;;;;3.75;3.00;;;;;12.83;59.90;100925.84;5073969;27;46017;-78
2023/05/12 04:35:21;;;;;;;;;2.25;1.75;;;;;12.82;60.12;100928.59;5073918;27;46081;-76
2023/05/12 04:41:08;;;;;;;;;1.00;0.00;;;;;12.75;59.96;100932.63;5074919;28;45555;-76
2023/05/12 04:43:34;;;;;;;;;2.25;2.00;;;;;12.72;59.71;100938.13;5077574;27;46193;-77
2023/05/12 04:46:00;;;;;;;;;2.00;2.00;;;;;12.68;59.87;100934.88;5077505;27;45633;-79
2023/05/12 04:48:25;;;;;;;;;3.00;2.00;;;;;12.66;59.76;100928.91;5077455;27;45513;-79
2023/05/12 04:50:51;;;;;;;;;3.00;2.25;;;;;12.66;59.88;100935.94;5077565;27;45824;-75
2023/05/12 04:53:16;;;;;;;;;1.25;1.00;;;;;12.70;59.45;100947.91;5077522;27;46443;-79
2023/05/12 04:55:44;;;;;;;;;1.25;1.00;;;;;12.69;58.95;100941.81;5076964;27;46375;-79
2023/05/12 04:58:13;;;;;;;;;1.25;1.00;;;;;12.70;58.96;100942.63;5075567;28;45702;-77
2023/05/12 05:00:38;;;;;;;;;2.00;2.00;;;;;12.66;58.54;100936.78;5076968;27;45683;-76
2023/05/12 05:03:04;;;;;;;;;1.75;1.75;;;;;12.71;58.40;100949.56;5077315;27;46296;-75
2023/05/12 05:05:30;;;;;;;;;2.00;1.00;;;;;12.71;58.04;100950.41;5077204;27;45953;-76
2023/05/12 05:11:16;;;;;;;;;1.00;1.00;;;;;12.72;57.60;100957.34;5077174;28;45802;-75
2023/05/12 05:13:42;;;;;;;;;2.25;2.00;;;;;12.71;57.35;100963.56;5077080;27;45749;-78
2023/05/12 05:16:07;;;;;;;;;2.25;1.75;;;;;12.67;57.66;100954.25;5077313;27;46155;-79
2023/05/12 05:18:33;;;;;;;;;1.25;1.25;;;;;12.66;57.37;100962.22;5076917;27;45612;-78
2023/05/12 05:20:58;;;;;;;;;3.00;2.75;;;;;12.66;57.44;100963.06;5076962;27;45768;-77
2023/05/12 05:26:45;;;;;;;;;3.00;1.75;;;;;12.63;57.17;100960.69;5076592;28;46004;-78
2023/05/12 05:29:11;;;;;;;;;1.75;1.75;;;;;12.67;57.41;100966.53;5077779;27;45492;-79
2023/05/12 05:31:36;;;;;;;;;2.25;1.25;;;;;12.64;57.20;100954.44;5077579;27;45562;-78
2023/05/12 05:34:02;;;;;;;;;4.50;2.00;;;;;12.69;56.92;100969.88;5076737;27;45726;-78
2023/05/12 05:36:28;;;;;;;;;2.00;2.00;;;;;12.64;57.16;100967.59;5076772;27;46231;-77
2023/05/12 05:38:54;;;;;;;;;1.50;0.50;;;;;12.67;56.92;100962.13;5076819;27;45748;-76
2023/05/12 05:41:20;;;;;;;;;1.50;1.00;;;;;12.69;57.37;100965.47;5076704;28;45705;-74
2023/05/12 05:43:45;;;;;;;;;3.00;2.00;;;;;12.71;57.25;100971.44;5076779;27;45574;-77
2023/05/12 05:46:10;;;;;;;;;1.00;1.00;;;;;12.75;56.63;100972.91;5076507;28;45709;-77
2023/05/12 05:48:36;;;;;;;;;3.50;2.00;;;;;12.74;56.16;100971.22;5076659;27;45497;-77
2023/05/12 05:51:02;;;;;;;;;2.00;2.00;;;;;12.72;56.72;100973.13;5076682;27;45670;-77
2023/05/12 05:56:49;;;;;;;;;2.00;1.00;;;;;12.69;56.78;100975.13;5064540;28;46035;-76
2023/05/12 05:59:15;;;;;;;;;2.00;1.75;;;;;12.70;56.59;100968.94;5076372;27;45701;-76
2023/05/12 06:01:40;;;;;;;;;1.50;1.00;;;;;12.71;56.48;100974.09;5076296;27;45463;-77
2023/05/12 06:04:06;;;;;;;;;2.00;2.00;;;;;12.72;56.43;100977.56;5075172;27;46235;-73
2023/05/12 06:06:31;;;;;;;;;2.00;1.00;;;;;12.69;56.31;100975.13;5075627;27;46432;-76
2023/05/12 06:12:18;;;;;;;;;2.00;2.00;;;;;12.65;56.30;100977.16;5076107;28;45613;-76
2023/05/12 06:14:44;;;;;;;;;2.00;1.00;;;;;12.68;56.21;100976.94;5076392;28;45676;-77
2023/05/12 06:17:09;;;;;;;;;1.00;1.00;;;;;12.69;56.18;100968.09;5091474;27;47006;-76
2023/05/12 06:19:35;;;;;;;;;1.50;1.00;;;;;12.68;56.03;100961.19;5075926;27;45718;-75
2023/05/12 06:22:00;;;;;;;;;1.00;1.00;;;;;12.74;56.04;100970.41;5075753;27;45970;-76
2023/05/12 06:24:25;;;;;;;;;1.50;1.50;;;;;12.76;55.81;100969.31;5076003;27;46457;-76
2023/05/12 06:26:51;;;;;;;;;1.00;1.00;;;;;12.84;56.42;100971.38;5075429;27;46060;-76
2023/05/12 06:29:16;;;;;;;;;1.00;1.00;;;;;12.85;55.83;100975.66;5075770;27;45592;-76
2023/05/12 06:31:41;;;;;;;;;2.00;2.00;;;;;12.86;55.70;100979.97;5075948;27;45736;-76
2023/05/12 06:34:07;;;;;;;;;1.00;1.00;;;;;12.87;55.87;100976.41;5075698;27;46465;-75
2023/05/12 06:36:32;;;;;;;;;1.75;1.00;;;;;12.85;55.58;100978.31;5075716;27;45718;-76
2023/05/12 06:42:19;;;;;;;;;2.00;2.00;;;;;12.92;55.75;100979.53;5075537;28;45692;-75
2023/05/12 06:44:45;;;;;;;;;2.00;1.00;;;;;12.93;55.90;100983.84;5091015;27;47924;-74
2023/05/12 06:47:10;;;;;;;;;2.50;2.00;;;;;12.93;55.68;100986.47;5075161;28;46955;-75
2023/05/12 06:49:37;;;;;;;;;2.25;1.00;;;;;12.93;55.73;100994.38;5091091;27;45971;-75
2023/05/12 06:58:28;;;;;;;;;4.25;2.75;;;;;13.04;55.86;100994.41;5047398;28;46094;-76
2023/05/12 07:00:54;;;;;;;;;2.75;2.00;;;;;13.03;56.12;100979.56;5052567;28;45609;-76
2023/05/12 07:03:20;;;;;;;;;2.00;2.00;;;;;13.11;55.99;100986.88;5035543;28;45887;-77
2023/05/12 07:05:45;;;;;;;;;1.00;1.00;;;;;13.16;56.17;100988.25;5052648;28;46942;-77
2023/05/12 07:08:10;;;;;;;;;1.75;1.75;;;;;13.19;56.18;100982.75;5052615;28;45749;-75
2023/05/12 07:10:36;;;;;;;;;3.00;2.00;;;;;13.24;56.29;100985.84;5035585;28;45619;-77
2023/05/12 07:13:04;;;;;;;;;3.25;2.00;;;;;13.24;56.46;100993.75;5035124;28;45648;-76
2023/05/12 07:15:30;;;;;;;;;3.00;2.25;;;;;13.24;56.50;100983.22;5035754;28;48971;-76
2023/05/12 07:17:55;;;;;;;;;2.00;2.00;;;;;13.29;56.75;100985.50;5052350;28;45802;-75
2023/05/12 07:20:21;;;;;;;;;2.50;2.50;;;;;13.33;56.69;100985.16;5052441;28;45730;-76
2023/05/12 07:22:47;;;;;;;;;2.00;2.00;;;;;13.37;56.80;100983.97;5052639;28;45909;-76
2023/05/12 07:25:12;;;;;;;;;3.00;2.00;;;;;13.38;56.72;100979.56;5052493;28;45671;-75
2023/05/12 07:27:38;;;;;;;;;3.75;3.00;;;;;13.47;57.06;100983.25;5052061;28;46003;-76
2023/05/12 07:30:05;;;;;;;;;5.00;4.00;;;;;13.53;57.16;100981.00;5052237;28;45790;-77
2023/05/12 07:32:30;;;;;;;;;7.25;7.25;;;;;13.61;57.17;100983.03;5068918;28;45815;-76
2023/05/12 07:34:56;;;;;;;;;16.00;14.25;;;;;13.63;56.98;100986.38;5074576;27;46268;-75
2023/05/12 07:37:21;;;;;;;;;42.25;35.25;;;;;13.65;57.17;100979.22;5074558;27;45970;-77
2023/05/12 07:43:08;;;;;;;;;42.25;35.25;;;;;13.72;57.28;100978.59;5074593;28;45545;-78
2023/05/12 07:45:34;;;;;;;;;12.25;10.00;;;;;13.80;57.20;100970.94;5074391;27;46436;-75
2023/05/12 07:48:00;;;;;;;;;6.00;6.00;;;;;13.86;57.11;100967.84;5074118;28;46368;-75
2023/05/12 07:50:25;;;;;;;;;5.00;4.75;;;;;13.91;57.52;100967.47;5074358;27;45834;-75
2023/05/12 07:52:52;;;;;;;;;6.75;3.50;;;;;13.96;57.30;100975.00;5073219;28;45705;-75
2023/05/12 07:55:19;;;;;;;;;3.75;2.50;;;;;14.03;57.11;100976.19;5074445;27;45604;-76
2023/05/12 07:57:45;;;;;;;;;3.00;3.00;;;;;14.09;57.07;100968.63;5072658;28;46256;-76
2023/05/12 08:00:11;;;;;;;;;4.00;3.00;;;;;14.17;56.97;100970.66;5089822;27;45673;-76
2023/05/12 08:02:37;;;;;;;;;4.00;3.00;;;;;14.23;56.94;100972.81;5074489;27;45686;-76
2023/05/12 08:05:03;;;;;;;;;4.50;4.00;;;;;14.29;57.08;100977.59;5074382;27;45532;-74
2023/05/12 08:07:28;;;;;;;;;2.00;1.25;;;;;14.33;56.84;100967.63;5074158;28;45715;-75
2023/05/12 08:13:15;;;;;;;;;4.00;3.00;;;;;14.44;57.02;100970.25;5074210;28;45595;-75
2023/05/12 08:15:41;;;;;;;;;5.00;3.25;;;;;14.46;56.78;100976.25;5072649;27;45682;-75
2023/05/12 08:18:06;;;;;;;;;2.75;2.00;;;;;14.52;57.20;100978.41;5072505;28;47243;-75
2023/05/12 08:20:32;;;;;;;;;4.00;3.00;;;;;14.56;57.17;100979.81;5073984;27;45519;-77
2023/05/12 08:29:22;;;;;;;;;4.00;4.00;;;;;14.72;57.26;100982.88;5073667;28;45874;-74
2023/05/12 08:31:47;;;;;;;;;5.50;4.00;;;;;14.79;57.47;100991.94;5072460;28;45675;-73
2023/05/12 08:34:12;;;;;;;;;4.00;3.00;;;;;14.83;57.40;100984.63;5073953;28;45596;-76
2023/05/12 08:36:39;;;;;;;;;4.00;3.50;;;;;14.87;57.15;100978.13;5088753;27;47032;-74
2023/05/12 08:39:04;;;;;;;;;2.75;2.00;;;;;14.97;57.60;100984.28;5072031;28;47146;-74
2023/05/12 08:41:47;;;;;;;;;5.25;3.25;;;;;15.00;57.53;100984.91;5073488;28;45557;-74
2023/05/12 08:44:14;;;;;;;;;3.75;3.00;;;;;15.02;57.81;100992.66;5074123;27;45552;-76
2023/05/12 08:46:41;;;;;;;;;5.25;5.00;;;;;15.06;57.70;100992.28;5089310;27;45760;-75
2023/05/12 08:49:14;;;;;;;;;4.00;4.00;;;;;15.07;57.86;100986.03;5072110;28;47044;-75
2023/05/12 08:51:43;;;;;;;;;4.25;3.25;;;;;15.09;58.31;100993.84;5073355;27;45582;-72
2023/05/12 08:54:11;;;;;;;;;3.75;3.50;;;;;15.10;58.63;101006.91;5073623;27;45863;-74
2023/05/12 08:56:38;;;;;;;;;4.75;4.50;;;;;15.10;59.00;100987.59;5073098;27;47334;-75
2023/05/12 08:59:07;;;;;;;;;3.50;3.00;;;;;15.09;59.05;100999.94;5073591;27;45991;-75
2023/05/12 09:01:36;;;;;;;;;6.00;4.25;;;;;15.03;59.65;100997.81;5073267;27;45817;-77
2023/05/12 09:04:03;;;;;;;;;4.75;4.75;;;;;14.98;60.10;101001.81;5073814;28;45703;-75
2023/05/12 09:06:29;;;;;;;;;4.75;3.75;;;;;14.95;60.13;101007.34;5088867;27;48600;-75
2023/05/12 09:08:55;;;;;;;;;4.00;4.00;;;;;14.88;60.71;101007.00;5071927;28;46569;-75
2023/05/12 09:11:21;;;;;;;;;6.25;4.25;;;;;14.88;60.58;100996.47;5073110;27;45607;-74
2023/05/12 09:13:52;;;;;;;;;5.75;4.75;;;;;14.82;61.04;101001.41;5072183;28;46017;-74
2023/05/12 09:16:23;;;;;;;;;6.00;5.00;;;;;14.79;61.65;100999.03;5073107;27;46589;-75
2023/05/12 09:18:52;;;;;;;;;9.00;7.75;;;;;14.77;61.87;101007.06;5072981;27;46175;-74
2023/05/12 09:21:18;;;;;;;;;7.50;7.25;;;;;14.75;62.41;101001.06;5073084;27;45733;-76
2023/05/12 09:24:05;;;;;;;;;11.00;9.25;;;;;14.67;62.72;101006.97;5073124;27;45605;-77
2023/05/12 09:26:43;;;;;;;;;6.75;6.25;;;;;14.59;62.81;100998.84;5073251;27;46927;-76
2023/05/12 09:29:08;;;;;;;;;9.25;7.25;;;;;14.57;63.57;101005.22;5076495;27;46548;-75
2023/05/12 09:31:34;;;;;;;;;11.25;10.00;;;;;14.53;64.23;100998.50;5076719;27;45524;-76
2023/05/12 09:34:01;;;;;;;;;11.00;9.50;;;;;14.49;64.00;100997.09;5076868;27;45557;-77
2023/05/12 09:36:27;;;;;;;;;10.25;8.75;;;;;14.50;64.12;100999.59;5092195;27;47506;-76
2023/05/12 09:39:07;;;;;;;;;12.25;12.00;;;;;14.47;64.44;101007.75;5076372;27;45974;-78
2023/05/12 09:41:37;;;;;;;;;12.00;9.50;;;;;14.42;64.83;101011.72;5076645;27;45470;-76
2023/05/12 09:44:04;;;;;;;;;9.75;9.75;;;;;14.39;65.21;101015.44;5076553;27;45778;-77
2023/05/12 09:46:29;;;;;;;;;13.00;10.00;;;;;14.33;65.39;101005.38;5076550;28;45748;-78
2023/05/12 09:48:58;;;;;;;;;11.00;10.75;;;;;14.33;65.69;101005.38;5076672;27;45602;-75
2023/05/12 09:51:28;;;;;;;;;11.00;9.00;;;;;14.28;65.89;101003.09;5074842;28;45620;-76
2023/05/12 09:53:53;;;;;;;;;13.00;11.00;;;;;14.32;66.11;101003.69;5075351;28;45691;-77
2023/05/12 09:56:23;;;;;;;;;10.25;9.25;;;;;14.35;66.78;101006.09;5076044;27;47575;-77
2023/05/12 09:58:49;;;;;;;;;11.00;9.75;;;;;14.40;66.42;100998.69;5075893;27;45979;-75
2023/05/12 10:01:17;;;;;;;;;10.00;9.00;;;;;14.44;66.60;101009.81;5075990;27;45641;-76
2023/05/12 10:03:47;;;;;;;;;11.25;9.75;;;;;14.51;66.72;100997.81;5076256;27;45676;-77
2023/05/12 10:06:29;;;;;;;;;12.00;10.00;;;;;14.56;66.99;101007.03;5076148;27;45540;-77
2023/05/12 10:15:38;;;;;;;;;7.50;5.00;;;;;14.77;66.03;101007.06;5076071;28;45533;-76
2023/05/12 10:18:07;;;;;;;;;9.50;7.25;;;;;14.81;66.01;100997.94;5075880;27;46621;-76
2023/05/12 10:20:34;;;;;;;;;9.00;7.50;;;;;14.89;66.34;100997.31;5074585;28;46007;-77
2023/05/12 10:23:00;;;;;;;;;9.50;8.00;;;;;14.91;65.90;101001.47;5091828;27;45757;-77
2023/05/12 10:25:27;;;;;;;;;8.75;7.50;;;;;14.95;66.08;100996.78;5075808;27;45528;-77
2023/05/12 10:27:54;;;;;;;;;9.75;6.75;;;;;14.96;65.69;100994.00;5075844;27;45767;-77
2023/05/12 10:30:21;;;;;;;;;9.00;7.50;;;;;14.91;65.21;100987.44;5091190;27;47935;-77
2023/05/12 10:32:46;;;;;;;;;4.00;3.00;;;;;14.91;65.29;101001.47;5076154;27;45848;-75
2023/05/12 10:35:12;;;;;;;;;5.00;4.50;;;;;14.86;64.99;101006.28;5096714;27;45308;-75
2023/05/12 10:37:38;;;;;;;;;7.25;5.75;;;;;14.83;65.44;101006.56;5083886;27;45545;-75
2023/05/12 10:40:05;;;;;;;;;5.75;5.25;;;;;14.83;65.28;100993.38;5078612;27;45851;-76
2023/05/12 10:42:40;;;;;;;;;7.25;6.25;;;;;14.86;65.31;100998.38;5076267;27;45610;-77
2023/05/12 10:45:18;;;;;;;;;10.75;7.25;;;;;14.87;64.71;100994.78;5075924;28;45701;-77
2023/05/12 10:47:47;;;;;;;;;5.25;4.25;;;;;14.94;65.02;101003.03;5075478;27;46574;-77
2023/05/12 10:50:12;;;;;;;;;6.00;5.75;;;;;14.94;64.71;100998.59;5075378;27;46024;-77
2023/05/12 10:52:56;;;;;;;;;4.25;4.00;;;;;14.94;64.55;100993.31;5075643;27;45639;-77
2023/05/12 10:55:40;;;;;;;;;6.50;5.50;;;;;15.02;64.20;100985.59;5075744;28;45542;-76
2023/05/12 10:58:09;;;;;;;;;5.75;5.00;;;;;15.08;64.44;100979.81;5075224;27;45559;-76
2023/05/12 11:00:48;;;;;;;;;5.00;4.25;;;;;15.17;64.30;100985.28;5075256;28;46087;-77
2023/05/12 11:03:16;;;;;;;;;8.00;7.25;;;;;15.25;64.14;100988.09;5075172;27;45608;-76
2023/05/12 11:05:43;;;;;;;;;7.00;6.25;;;;;15.32;63.77;100982.19;5075495;27;45544;-75
2023/05/12 11:08:09;;;;;;;;;5.25;4.00;;;;;15.34;63.07;100992.59;5075386;28;45641;-76
2023/05/12 11:10:34;;;;;;;;;7.00;6.00;;;;;15.37;62.84;100984.44;5074897;27;45669;-75
2023/05/12 11:13:04;;;;;;;;;5.75;4.75;;;;;15.43;62.77;100982.09;5075456;27;45564;-77
2023/05/12 11:15:31;;;;;;;;;3.50;3.50;;;;;15.45;62.63;100984.59;5075402;27;45773;-78
2023/05/12 11:17:56;;;;;;;;;6.00;5.25;;;;;15.46;62.98;100971.28;5074930;27;45646;-76
2023/05/12 11:20:23;;;;;;;;;5.00;4.75;;;;;15.56;62.64;100973.16;5074730;27;46440;-75
2023/05/12 11:22:49;;;;;;;;;5.25;4.50;;;;;15.63;62.46;100972.50;5075131;27;45720;-76
2023/05/12 11:25:15;;;;;;;;;4.00;4.00;;;;;15.70;62.34;100967.53;5075210;27;45703;-76
2023/05/12 11:27:48;;;;;;;;;8.00;6.25;;;;;15.74;62.24;100976.84;5074869;27;46563;-75
2023/05/12 11:30:14;;;;;;;;;6.00;5.00;;;;;15.73;61.89;100962.81;5074816;27;45982;-75
2023/05/12 11:32:40;;;;;;;;;4.00;3.25;;;;;15.80;61.91;100971.03;5075020;27;45648;-77
2023/05/12 11:35:14;;;;;;;;;5.00;4.25;;;;;15.86;61.76;100966.06;5073548;28;45619;-74
2023/05/12 11:37:40;;;;;;;;;5.75;5.00;;;;;15.92;61.64;100965.50;5074764;27;46790;-75
2023/05/12 11:40:20;;;;;;;;;5.50;4.25;;;;;16.02;61.26;100967.34;5074489;27;46493;-76
2023/05/12 11:42:50;;;;;;;;;5.50;4.50;;;;;16.05;61.44;100972.34;5074938;28;45528;-78
2023/05/12 11:45:29;;;;;;;;;6.00;5.00;;;;;16.10;61.27;100956.91;5074880;27;45593;-77
2023/05/12 11:48:06;;;;;;;;;5.25;4.25;;;;;16.12;60.91;100952.34;5074707;27;45757;-77
2023/05/12 11:50:31;;;;;;;;;4.25;4.00;;;;;16.15;60.49;100957.34;5074527;27;46077;-78
2023/05/12 11:52:57;;;;;;;;;4.00;3.00;;;;;16.19;60.28;100953.47;5074761;28;45544;-77
2023/05/12 11:55:24;;;;;;;;;5.00;4.50;;;;;16.26;60.43;100949.28;5074725;27;45556;-75
2023/05/12 11:57:58;;;;;;;;;4.00;4.00;;;;;16.33;59.95;100945.13;5072734;28;48476;-77
2023/05/12 12:00:31;;;;;;;;;3.75;2.75;;;;;16.36;59.54;100943.03;5074436;27;45909;-75
2023/05/12 12:03:08;;;;;;;;;4.00;4.00;;;;;16.37;59.67;100954.47;5073363;28;45624;-79
2023/05/12 12:05:34;;;;;;;;;5.75;4.00;;;;;16.33;58.84;100943.34;5074661;27;45620;-76
2023/05/12 12:08:14;;;;;;;;;5.00;3.75;;;;;16.27;59.30;100943.03;5074084;27;46927;-77
2023/05/12 12:10:46;;;;;;;;;4.75;4.00;;;;;16.25;59.24;100944.97;5089098;27;47081;-77
2023/05/12 12:13:18;;;;;;;;;5.00;4.50;;;;;16.24;59.11;100940.69;5073982;27;45751;-76
2023/05/12 12:15:43;;;;;;;;;4.50;4.50;;;;;16.22;59.96;100939.97;5074135;27;45651;-75
2023/05/12 12:18:09;;;;;;;;;5.00;5.00;;;;;16.22;59.61;100938.16;5074287;27;45622;-76
2023/05/12 12:20:34;;;;;;;;;5.00;4.00;;;;;16.19;59.50;100943.75;5089290;27;46267;-77
2023/05/12 12:23:00;;;;;;;;;5.00;5.00;;;;;16.15;59.63;100946.78;5074193;27;45588;-77
2023/05/12 12:25:25;;;;;;;;;5.75;5.00;;;;;16.10;59.56;100943.72;5074200;27;45653;-77
2023/05/12 12:27:51;;;;;;;;;4.00;4.00;;;;;16.05;59.54;100945.91;5073991;27;46400;-74
2023/05/12 12:30:17;;;;;;;;;4.25;4.00;;;;;16.01;59.65;100961.22;5073991;27;45607;-78
2023/05/12 12:32:44;;;;;;;;;4.00;3.00;;;;;15.93;59.68;100946.03;5074143;27;45745;-76
2023/05/12 12:35:10;;;;;;;;;4.50;4.25;;;;;15.84;59.63;100954.78;5074233;27;45509;-76
2023/05/12 12:37:36;;;;;;;;;3.75;3.50;;;;;15.72;60.17;100955.84;5074014;27;46555;-75
2023/05/12 12:40:06;;;;;;;;;5.75;3.50;;;;;15.65;60.18;100954.72;5073574;27;46128;-75
2023/05/12 12:45:53;;;;;;;;;4.75;4.25;;;;;15.46;60.96;100971.28;5073820;28;45633;-78